sensor_id;sensor_type;location;lat;lon;timestamp;P1;durP1;ratioP1;P2;durP2;ratioP2
47635;SDS011;33364;50.766;15.338;2022-12-20T00:00:16;37.85;;;16.63;;
47635;SDS011;33364;50.766;15.338;2022-12-20T00:03:01;46.72;;;19.30;;
47635;SDS011;33364;50.766;15.338;2022-12-20T00:05:27;44.58;;;18.45;;
47635;SDS011;33364;50.766;15.338;2022-12-20T00:07:53;45.25;;;17.90;;
47635;SDS011;33364;50.766;15.338;2022-12-20T00:10:18;40.70;;;18.70;;
47635;SDS011;33364;50.766;15.338;2022-12-20T00:12:44;44.47;;;18.25;;
47635;SDS011;33364;50.766;15.338;2022-12-20T00:15:10;44.08;;;19.95;;
47635;SDS011;33364;50.766;15.338;2022-12-20T00:17:35;41.67;;;19.42;;
47635;SDS011;33364;50.766;15.338;2022-12-20T00:20:01;41.80;;;19.15;;
47635;SDS011;33364;50.766;15.338;2022-12-20T00:22:27;48.05;;;20.52;;
47635;SDS011;33364;50.766;15.338;2022-12-20T00:24:53;42.30;;;18.33;;
47635;SDS011;33364;50.766;15.338;2022-12-20T00:27:18;41.88;;;17.98;;
47635;SDS011;33364;50.766;15.338;2022-12-20T00:29:44;39.92;;;17.40;;
47635;SDS011;33364;50.766;15.338;2022-12-20T00:32:09;43.33;;;17.98;;
47635;SDS011;33364;50.766;15.338;2022-12-20T00:34:35;46.03;;;19.52;;
47635;SDS011;33364;50.766;15.338;2022-12-20T00:37:01;46.80;;;19.65;;
47635;SDS011;33364;50.766;15.338;2022-12-20T00:39:26;44.28;;;19.17;;
47635;SDS011;33364;50.766;15.338;2022-12-20T00:41:52;42.58;;;17.80;;
47635;SDS011;33364;50.766;15.338;2022-12-20T00:44:18;39.10;;;18.45;;
47635;SDS011;33364;50.766;15.338;2022-12-20T00:46:43;37.67;;;16.67;;
47635;SDS011;33364;50.766;15.338;2022-12-20T00:49:09;38.65;;;17.55;;
47635;SDS011;33364;50.766;15.338;2022-12-20T00:51:35;36.35;;;17.05;;
47635;SDS011;33364;50.766;15.338;2022-12-20T00:54:00;38.75;;;17.38;;
47635;SDS011;33364;50.766;15.338;2022-12-20T00:56:26;37.40;;;17.50;;
47635;SDS011;33364;50.766;15.338;2022-12-20T00:58:52;36.53;;;17.63;;
47635;SDS011;33364;50.766;15.338;2022-12-20T01:01:25;32.10;;;15.73;;
47635;SDS011;33364;50.766;15.338;2022-12-20T01:03:54;38.13;;;17.13;;
47635;SDS011;33364;50.766;15.338;2022-12-20T01:06:20;37.05;;;16.63;;
47635;SDS011;33364;50.766;15.338;2022-12-20T01:08:47;34.35;;;15.85;;
47635;SDS011;33364;50.766;15.338;2022-12-20T01:11:14;41.22;;;15.18;;
47635;SDS011;33364;50.766;15.338;2022-12-20T01:13:43;28.98;;;14.13;;
47635;SDS011;33364;50.766;15.338;2022-12-20T01:16:12;33.55;;;15.68;;
47635;SDS011;33364;50.766;15.338;2022-12-20T01:18:41;29.35;;;15.07;;
47635;SDS011;33364;50.766;15.338;2022-12-20T01:21:07;32.22;;;13.93;;
47635;SDS011;33364;50.766;15.338;2022-12-20T01:23:35;35.30;;;15.38;;
47635;SDS011;33364;50.766;15.338;2022-12-20T01:26:02;35.50;;;15.98;;
47635;SDS011;33364;50.766;15.338;2022-12-20T01:28:30;32.00;;;14.27;;
47635;SDS011;33364;50.766;15.338;2022-12-20T01:30:56;31.15;;;14.02;;
47635;SDS011;33364;50.766;15.338;2022-12-20T01:33:22;30.17;;;13.70;;
47635;SDS011;33364;50.766;15.338;2022-12-20T01:36:04;28.35;;;13.73;;
47635;SDS011;33364;50.766;15.338;2022-12-20T01:38:33;30.77;;;14.50;;
47635;SDS011;33364;50.766;15.338;2022-12-20T01:41:00;32.20;;;16.08;;
47635;SDS011;33364;50.766;15.338;2022-12-20T01:46:30;33.30;;;14.88;;
47635;SDS011;33364;50.766;15.338;2022-12-20T01:49:08;33.22;;;15.98;;
47635;SDS011;33364;50.766;15.338;2022-12-20T01:51:41;34.53;;;15.48;;
47635;SDS011;33364;50.766;15.338;2022-12-20T01:54:10;25.20;;;12.10;;
47635;SDS011;33364;50.766;15.338;2022-12-20T01:56:50;27.70;;;13.95;;
47635;SDS011;33364;50.766;15.338;2022-12-20T01:59:20;31.00;;;13.67;;
47635;SDS011;33364;50.766;15.338;2022-12-20T02:01:46;30.77;;;14.50;;
47635;SDS011;33364;50.766;15.338;2022-12-20T02:04:12;31.20;;;13.18;;
47635;SDS011;33364;50.766;15.338;2022-12-20T02:06:37;28.42;;;13.82;;
47635;SDS011;33364;50.766;15.338;2022-12-20T02:09:03;29.33;;;12.82;;
47635;SDS011;33364;50.766;15.338;2022-12-20T02:17:28;26.40;;;12.90;;
47635;SDS011;33364;50.766;15.338;2022-12-20T02:31:58;26.27;;;12.65;;
47635;SDS011;33364;50.766;15.338;2022-12-20T02:34:24;23.60;;;11.13;;
47635;SDS011;33364;50.766;15.338;2022-12-20T02:36:51;25.35;;;11.45;;
47635;SDS011;33364;50.766;15.338;2022-12-20T02:39:17;33.50;;;13.57;;
47635;SDS011;33364;50.766;15.338;2022-12-20T02:41:47;26.05;;;12.15;;
47635;SDS011;33364;50.766;15.338;2022-12-20T02:44:18;24.77;;;11.55;;
47635;SDS011;33364;50.766;15.338;2022-12-20T02:47:08;27.02;;;11.82;;
47635;SDS011;33364;50.766;15.338;2022-12-20T02:49:36;26.00;;;12.10;;
47635;SDS011;33364;50.766;15.338;2022-12-20T02:52:05;26.63;;;12.77;;
47635;SDS011;33364;50.766;15.338;2022-12-20T02:54:33;31.00;;;13.40;;
47635;SDS011;33364;50.766;15.338;2022-12-20T02:57:04;28.90;;;13.63;;
47635;SDS011;33364;50.766;15.338;2022-12-20T03:00:18;26.58;;;11.98;;
47635;SDS011;33364;50.766;15.338;2022-12-20T03:02:28;30.95;;;12.20;;
47635;SDS011;33364;50.766;15.338;2022-12-20T03:05:16;28.00;;;13.18;;
47635;SDS011;33364;50.766;15.338;2022-12-20T03:07:42;28.17;;;12.77;;
47635;SDS011;33364;50.766;15.338;2022-12-20T03:10:08;31.08;;;13.63;;
47635;SDS011;33364;50.766;15.338;2022-12-20T03:12:34;28.33;;;12.50;;
47635;SDS011;33364;50.766;15.338;2022-12-20T03:15:00;30.30;;;13.82;;
47635;SDS011;33364;50.766;15.338;2022-12-20T03:17:26;28.05;;;13.23;;
47635;SDS011;33364;50.766;15.338;2022-12-20T03:19:51;34.53;;;14.30;;
47635;SDS011;33364;50.766;15.338;2022-12-20T03:22:17;28.90;;;12.82;;
47635;SDS011;33364;50.766;15.338;2022-12-20T03:24:42;31.80;;;13.40;;
47635;SDS011;33364;50.766;15.338;2022-12-20T03:27:08;31.02;;;13.77;;
47635;SDS011;33364;50.766;15.338;2022-12-20T03:29:34;32.25;;;14.15;;
47635;SDS011;33364;50.766;15.338;2022-12-20T03:31:59;29.40;;;13.00;;
47635;SDS011;33364;50.766;15.338;2022-12-20T03:34:25;25.60;;;11.95;;
47635;SDS011;33364;50.766;15.338;2022-12-20T03:36:51;31.80;;;13.00;;
47635;SDS011;33364;50.766;15.338;2022-12-20T03:39:16;34.40;;;14.93;;
47635;SDS011;33364;50.766;15.338;2022-12-20T03:41:42;28.95;;;12.80;;
47635;SDS011;33364;50.766;15.338;2022-12-20T03:44:07;31.77;;;11.98;;
47635;SDS011;33364;50.766;15.338;2022-12-20T03:46:33;27.80;;;12.73;;
47635;SDS011;33364;50.766;15.338;2022-12-20T03:49:00;32.88;;;12.90;;
47635;SDS011;33364;50.766;15.338;2022-12-20T03:51:25;31.55;;;13.95;;
47635;SDS011;33364;50.766;15.338;2022-12-20T03:53:51;44.53;;;16.77;;
47635;SDS011;33364;50.766;15.338;2022-12-20T03:56:17;30.63;;;13.40;;
47635;SDS011;33364;50.766;15.338;2022-12-20T03:58:43;31.63;;;14.15;;
47635;SDS011;33364;50.766;15.338;2022-12-20T04:01:22;30.33;;;12.77;;
47635;SDS011;33364;50.766;15.338;2022-12-20T04:03:50;33.90;;;13.77;;
47635;SDS011;33364;50.766;15.338;2022-12-20T04:06:16;33.17;;;14.30;;
47635;SDS011;33364;50.766;15.338;2022-12-20T04:08:42;33.55;;;14.52;;
47635;SDS011;33364;50.766;15.338;2022-12-20T04:11:08;34.45;;;14.30;;
47635;SDS011;33364;50.766;15.338;2022-12-20T04:13:46;24.87;;;9.93;;
47635;SDS011;33364;50.766;15.338;2022-12-20T04:16:18;31.73;;;12.63;;
47635;SDS011;33364;50.766;15.338;2022-12-20T04:18:45;32.55;;;12.40;;
47635;SDS011;33364;50.766;15.338;2022-12-20T04:21:11;34.67;;;15.55;;
47635;SDS011;33364;50.766;15.338;2022-12-20T04:23:37;34.92;;;13.35;;
47635;SDS011;33364;50.766;15.338;2022-12-20T04:26:04;34.10;;;14.93;;
47635;SDS011;33364;50.766;15.338;2022-12-20T04:28:31;36.72;;;16.55;;
47635;SDS011;33364;50.766;15.338;2022-12-20T04:30:58;45.35;;;18.83;;
47635;SDS011;33364;50.766;15.338;2022-12-20T04:33:24;43.80;;;18.75;;
47635;SDS011;33364;50.766;15.338;2022-12-20T04:35:51;30.65;;;14.48;;
47635;SDS011;33364;50.766;15.338;2022-12-20T04:38:18;34.15;;;15.50;;
47635;SDS011;33364;50.766;15.338;2022-12-20T04:40:45;35.15;;;14.35;;
47635;SDS011;33364;50.766;15.338;2022-12-20T04:43:13;39.80;;;17.95;;
47635;SDS011;33364;50.766;15.338;2022-12-20T04:45:38;42.33;;;17.50;;
47635;SDS011;33364;50.766;15.338;2022-12-20T04:48:04;33.35;;;16.05;;
47635;SDS011;33364;50.766;15.338;2022-12-20T04:50:30;32.80;;;13.18;;
47635;SDS011;33364;50.766;15.338;2022-12-20T04:52:55;37.70;;;14.52;;
47635;SDS011;33364;50.766;15.338;2022-12-20T04:55:40;35.97;;;15.35;;
47635;SDS011;33364;50.766;15.338;2022-12-20T04:58:06;28.50;;;13.63;;
47635;SDS011;33364;50.766;15.338;2022-12-20T05:00:33;32.33;;;14.25;;
47635;SDS011;33364;50.766;15.338;2022-12-20T05:02:59;36.85;;;15.02;;
47635;SDS011;33364;50.766;15.338;2022-12-20T05:05:25;31.15;;;14.70;;
47635;SDS011;33364;50.766;15.338;2022-12-20T05:07:51;36.08;;;15.57;;
47635;SDS011;33364;50.766;15.338;2022-12-20T05:10:17;31.90;;;13.60;;
47635;SDS011;33364;50.766;15.338;2022-12-20T05:12:43;37.95;;;15.98;;
47635;SDS011;33364;50.766;15.338;2022-12-20T05:15:10;33.25;;;14.73;;
47635;SDS011;33364;50.766;15.338;2022-12-20T05:17:36;33.90;;;14.48;;
47635;SDS011;33364;50.766;15.338;2022-12-20T05:20:02;32.28;;;14.80;;
47635;SDS011;33364;50.766;15.338;2022-12-20T05:22:28;52.25;;;22.85;;
47635;SDS011;33364;50.766;15.338;2022-12-20T05:25:13;46.80;;;19.23;;
47635;SDS011;33364;50.766;15.338;2022-12-20T05:27:57;46.25;;;20.98;;
47635;SDS011;33364;50.766;15.338;2022-12-20T05:30:23;55.05;;;25.75;;
47635;SDS011;33364;50.766;15.338;2022-12-20T05:32:49;91.90;;;37.78;;
47635;SDS011;33364;50.766;15.338;2022-12-20T05:35:15;54.25;;;25.25;;
47635;SDS011;33364;50.766;15.338;2022-12-20T05:37:41;57.17;;;26.55;;
47635;SDS011;33364;50.766;15.338;2022-12-20T05:40:07;46.95;;;22.13;;
47635;SDS011;33364;50.766;15.338;2022-12-20T05:42:33;51.97;;;21.10;;
47635;SDS011;33364;50.766;15.338;2022-12-20T05:44:59;48.35;;;21.08;;
47635;SDS011;33364;50.766;15.338;2022-12-20T05:47:25;49.85;;;20.85;;
47635;SDS011;33364;50.766;15.338;2022-12-20T05:49:52;75.20;;;31.30;;
47635;SDS011;33364;50.766;15.338;2022-12-20T05:52:17;57.55;;;24.73;;
47635;SDS011;33364;50.766;15.338;2022-12-20T05:54:43;62.00;;;25.98;;
47635;SDS011;33364;50.766;15.338;2022-12-20T05:57:08;51.55;;;23.05;;
47635;SDS011;33364;50.766;15.338;2022-12-20T05:59:34;73.43;;;33.65;;
47635;SDS011;33364;50.766;15.338;2022-12-20T06:02:00;87.05;;;39.92;;
47635;SDS011;33364;50.766;15.338;2022-12-20T06:04:26;84.32;;;36.22;;
47635;SDS011;33364;50.766;15.338;2022-12-20T06:06:51;69.53;;;29.30;;
47635;SDS011;33364;50.766;15.338;2022-12-20T06:09:17;61.90;;;25.83;;
47635;SDS011;33364;50.766;15.338;2022-12-20T06:11:42;58.72;;;26.40;;
47635;SDS011;33364;50.766;15.338;2022-12-20T06:14:08;63.83;;;28.50;;
47635;SDS011;33364;50.766;15.338;2022-12-20T06:16:34;66.05;;;28.63;;
47635;SDS011;33364;50.766;15.338;2022-12-20T06:19:00;79.95;;;32.17;;
47635;SDS011;33364;50.766;15.338;2022-12-20T06:21:26;70.93;;;30.98;;
47635;SDS011;33364;50.766;15.338;2022-12-20T06:23:53;70.03;;;30.33;;
47635;SDS011;33364;50.766;15.338;2022-12-20T06:26:19;71.18;;;29.85;;
47635;SDS011;33364;50.766;15.338;2022-12-20T06:28:47;89.90;;;37.25;;
47635;SDS011;33364;50.766;15.338;2022-12-20T06:31:16;86.85;;;36.88;;
47635;SDS011;33364;50.766;15.338;2022-12-20T06:33:42;71.28;;;30.80;;
47635;SDS011;33364;50.766;15.338;2022-12-20T06:36:08;69.60;;;30.67;;
47635;SDS011;33364;50.766;15.338;2022-12-20T06:38:34;62.67;;;27.00;;
47635;SDS011;33364;50.766;15.338;2022-12-20T06:40:59;57.28;;;25.80;;
47635;SDS011;33364;50.766;15.338;2022-12-20T06:43:25;61.88;;;29.67;;
47635;SDS011;33364;50.766;15.338;2022-12-20T06:45:50;83.80;;;44.33;;
47635;SDS011;33364;50.766;15.338;2022-12-20T06:48:16;67.32;;;33.80;;
47635;SDS011;33364;50.766;15.338;2022-12-20T06:50:42;64.00;;;29.77;;
47635;SDS011;33364;50.766;15.338;2022-12-20T06:53:07;66.35;;;30.92;;
47635;SDS011;33364;50.766;15.338;2022-12-20T06:55:33;64.68;;;28.52;;
47635;SDS011;33364;50.766;15.338;2022-12-20T06:57:59;65.13;;;28.33;;
47635;SDS011;33364;50.766;15.338;2022-12-20T07:00:25;58.60;;;27.92;;
47635;SDS011;33364;50.766;15.338;2022-12-20T07:02:51;64.90;;;28.08;;
47635;SDS011;33364;50.766;15.338;2022-12-20T07:05:17;63.20;;;28.48;;
47635;SDS011;33364;50.766;15.338;2022-12-20T07:07:43;53.58;;;24.88;;
47635;SDS011;33364;50.766;15.338;2022-12-20T07:10:08;91.32;;;36.67;;
47635;SDS011;33364;50.766;15.338;2022-12-20T07:12:34;65.05;;;28.30;;
47635;SDS011;33364;50.766;15.338;2022-12-20T07:15:00;74.53;;;30.45;;
47635;SDS011;33364;50.766;15.338;2022-12-20T07:17:25;76.50;;;33.13;;
47635;SDS011;33364;50.766;15.338;2022-12-20T07:19:51;130.05;;;47.55;;
47635;SDS011;33364;50.766;15.338;2022-12-20T07:22:17;122.65;;;48.88;;
47635;SDS011;33364;50.766;15.338;2022-12-20T07:24:42;140.50;;;54.10;;
47635;SDS011;33364;50.766;15.338;2022-12-20T07:27:09;128.98;;;51.13;;
47635;SDS011;33364;50.766;15.338;2022-12-20T07:29:35;87.60;;;36.58;;
47635;SDS011;33364;50.766;15.338;2022-12-20T07:32:01;85.65;;;35.70;;
47635;SDS011;33364;50.766;15.338;2022-12-20T07:34:27;77.13;;;31.15;;
47635;SDS011;33364;50.766;15.338;2022-12-20T07:36:53;100.65;;;37.70;;
47635;SDS011;33364;50.766;15.338;2022-12-20T07:39:18;92.47;;;34.25;;
47635;SDS011;33364;50.766;15.338;2022-12-20T07:41:44;93.80;;;38.05;;
47635;SDS011;33364;50.766;15.338;2022-12-20T07:44:10;76.80;;;33.42;;
47635;SDS011;33364;50.766;15.338;2022-12-20T07:46:36;62.17;;;30.05;;
47635;SDS011;33364;50.766;15.338;2022-12-20T07:49:02;62.47;;;24.75;;
47635;SDS011;33364;50.766;15.338;2022-12-20T07:51:28;60.20;;;25.60;;
47635;SDS011;33364;50.766;15.338;2022-12-20T07:54:08;67.50;;;27.75;;
47635;SDS011;33364;50.766;15.338;2022-12-20T07:56:39;61.92;;;27.55;;
47635;SDS011;33364;50.766;15.338;2022-12-20T07:59:10;72.20;;;32.83;;
47635;SDS011;33364;50.766;15.338;2022-12-20T08:01:39;56.30;;;24.58;;
47635;SDS011;33364;50.766;15.338;2022-12-20T08:04:09;103.10;;;46.47;;
47635;SDS011;33364;50.766;15.338;2022-12-20T08:06:38;87.38;;;38.38;;
47635;SDS011;33364;50.766;15.338;2022-12-20T08:09:05;66.22;;;29.33;;
47635;SDS011;33364;50.766;15.338;2022-12-20T08:11:33;68.43;;;27.80;;
47635;SDS011;33364;50.766;15.338;2022-12-20T08:14:01;67.60;;;27.23;;
47635;SDS011;33364;50.766;15.338;2022-12-20T08:16:28;57.75;;;26.30;;
47635;SDS011;33364;50.766;15.338;2022-12-20T08:18:55;53.15;;;23.88;;
47635;SDS011;33364;50.766;15.338;2022-12-20T08:21:21;73.10;;;34.00;;
47635;SDS011;33364;50.766;15.338;2022-12-20T08:23:47;177.15;;;75.18;;
47635;SDS011;33364;50.766;15.338;2022-12-20T08:26:12;86.75;;;40.78;;
47635;SDS011;33364;50.766;15.338;2022-12-20T08:28:38;69.45;;;33.17;;
47635;SDS011;33364;50.766;15.338;2022-12-20T08:31:05;54.60;;;25.55;;
47635;SDS011;33364;50.766;15.338;2022-12-20T08:33:33;59.63;;;24.15;;
47635;SDS011;33364;50.766;15.338;2022-12-20T08:36:01;53.42;;;23.17;;
47635;SDS011;33364;50.766;15.338;2022-12-20T08:38:28;52.75;;;23.05;;
47635;SDS011;33364;50.766;15.338;2022-12-20T08:41:16;60.50;;;25.38;;
47635;SDS011;33364;50.766;15.338;2022-12-20T08:43:42;47.22;;;21.35;;
47635;SDS011;33364;50.766;15.338;2022-12-20T08:46:08;87.05;;;39.10;;
47635;SDS011;33364;50.766;15.338;2022-12-20T08:48:34;106.45;;;49.35;;
47635;SDS011;33364;50.766;15.338;2022-12-20T08:51:02;68.68;;;31.15;;
47635;SDS011;33364;50.766;15.338;2022-12-20T08:53:29;69.55;;;32.20;;
47635;SDS011;33364;50.766;15.338;2022-12-20T08:56:06;74.10;;;37.03;;
47635;SDS011;33364;50.766;15.338;2022-12-20T08:58:32;97.90;;;42.55;;
47635;SDS011;33364;50.766;15.338;2022-12-20T09:00:59;72.82;;;32.58;;
47635;SDS011;33364;50.766;15.338;2022-12-20T09:03:28;52.28;;;24.35;;
47635;SDS011;33364;50.766;15.338;2022-12-20T09:05:55;60.47;;;25.58;;
47635;SDS011;33364;50.766;15.338;2022-12-20T09:08:22;59.70;;;26.33;;
47635;SDS011;33364;50.766;15.338;2022-12-20T09:10:48;72.15;;;29.88;;
47635;SDS011;33364;50.766;15.338;2022-12-20T09:13:13;86.15;;;43.42;;
47635;SDS011;33364;50.766;15.338;2022-12-20T09:15:39;70.53;;;30.98;;
47635;SDS011;33364;50.766;15.338;2022-12-20T09:18:04;61.90;;;25.00;;
47635;SDS011;33364;50.766;15.338;2022-12-20T09:20:30;63.90;;;26.73;;
47635;SDS011;33364;50.766;15.338;2022-12-20T09:22:57;60.45;;;25.30;;
47635;SDS011;33364;50.766;15.338;2022-12-20T09:25:24;54.35;;;24.05;;
47635;SDS011;33364;50.766;15.338;2022-12-20T09:27:51;57.30;;;24.20;;
47635;SDS011;33364;50.766;15.338;2022-12-20T09:30:18;54.55;;;24.60;;
47635;SDS011;33364;50.766;15.338;2022-12-20T09:32:43;61.88;;;25.55;;
47635;SDS011;33364;50.766;15.338;2022-12-20T09:35:10;63.55;;;27.15;;
47635;SDS011;33364;50.766;15.338;2022-12-20T09:37:36;57.70;;;24.85;;
47635;SDS011;33364;50.766;15.338;2022-12-20T09:40:02;64.22;;;25.45;;
47635;SDS011;33364;50.766;15.338;2022-12-20T09:42:28;56.80;;;24.73;;
47635;SDS011;33364;50.766;15.338;2022-12-20T09:44:59;68.50;;;30.48;;
47635;SDS011;33364;50.766;15.338;2022-12-20T09:47:30;58.20;;;24.73;;
47635;SDS011;33364;50.766;15.338;2022-12-20T09:49:59;49.67;;;24.75;;
47635;SDS011;33364;50.766;15.338;2022-12-20T10:00:45;81.30;;;32.80;;
47635;SDS011;33364;50.766;15.338;2022-12-20T10:03:18;73.22;;;33.22;;
47635;SDS011;33364;50.766;15.338;2022-12-20T10:05:54;56.10;;;25.65;;
47635;SDS011;33364;50.766;15.338;2022-12-20T10:08:29;61.22;;;26.58;;
47635;SDS011;33364;50.766;15.338;2022-12-20T10:24:38;63.63;;;27.15;;
47635;SDS011;33364;50.766;15.338;2022-12-20T10:27:19;54.13;;;23.55;;
47635;SDS011;33364;50.766;15.338;2022-12-20T10:29:45;58.25;;;26.02;;
47635;SDS011;33364;50.766;15.338;2022-12-20T10:32:15;64.45;;;26.48;;
47635;SDS011;33364;50.766;15.338;2022-12-20T10:35:27;57.78;;;25.67;;
47635;SDS011;33364;50.766;15.338;2022-12-20T10:37:35;69.50;;;28.75;;
47635;SDS011;33364;50.766;15.338;2022-12-20T10:40:02;57.72;;;24.70;;
47635;SDS011;33364;50.766;15.338;2022-12-20T10:42:35;55.47;;;25.80;;
47635;SDS011;33364;50.766;15.338;2022-12-20T10:45:37;64.93;;;27.17;;
47635;SDS011;33364;50.766;15.338;2022-12-20T10:47:59;56.85;;;24.73;;
47635;SDS011;33364;50.766;15.338;2022-12-20T10:50:25;85.40;;;36.80;;
47635;SDS011;33364;50.766;15.338;2022-12-20T10:53:15;81.60;;;35.17;;
47635;SDS011;33364;50.766;15.338;2022-12-20T10:55:45;78.65;;;34.65;;
47635;SDS011;33364;50.766;15.338;2022-12-20T10:58:17;60.92;;;25.42;;
47635;SDS011;33364;50.766;15.338;2022-12-20T11:01:11;69.20;;;27.65;;
47635;SDS011;33364;50.766;15.338;2022-12-20T11:04:19;83.97;;;36.45;;
47635;SDS011;33364;50.766;15.338;2022-12-20T11:06:45;98.95;;;39.47;;
47635;SDS011;33364;50.766;15.338;2022-12-20T11:14:41;149.70;;;62.83;;
47635;SDS011;33364;50.766;15.338;2022-12-20T11:23:02;132.07;;;51.08;;
47635;SDS011;33364;50.766;15.338;2022-12-20T11:31:27;60.78;;;26.00;;
47635;SDS011;33364;50.766;15.338;2022-12-20T11:34:05;60.40;;;25.40;;
47635;SDS011;33364;50.766;15.338;2022-12-20T11:36:43;66.03;;;27.55;;
47635;SDS011;33364;50.766;15.338;2022-12-20T11:39:20;65.38;;;28.02;;
47635;SDS011;33364;50.766;15.338;2022-12-20T11:49:59;93.97;;;41.85;;
47635;SDS011;33364;50.766;15.338;2022-12-20T11:52:40;87.85;;;35.83;;
47635;SDS011;33364;50.766;15.338;2022-12-20T11:57:42;72.93;;;33.63;;
47635;SDS011;33364;50.766;15.338;2022-12-20T12:00:23;87.38;;;36.35;;
47635;SDS011;33364;50.766;15.338;2022-12-20T12:05:42;97.82;;;42.33;;
47635;SDS011;33364;50.766;15.338;2022-12-20T12:08:18;120.75;;;51.08;;
47635;SDS011;33364;50.766;15.338;2022-12-20T12:10:57;93.70;;;42.75;;
47635;SDS011;33364;50.766;15.338;2022-12-20T12:13:31;71.65;;;29.58;;
47635;SDS011;33364;50.766;15.338;2022-12-20T12:18:30;163.85;;;75.93;;
47635;SDS011;33364;50.766;15.338;2022-12-20T12:26:21;84.53;;;37.53;;
47635;SDS011;33364;50.766;15.338;2022-12-20T12:28:53;78.07;;;40.00;;
47635;SDS011;33364;50.766;15.338;2022-12-20T12:31:24;92.75;;;44.97;;
47635;SDS011;33364;50.766;15.338;2022-12-20T12:34:02;74.70;;;33.63;;
47635;SDS011;33364;50.766;15.338;2022-12-20T12:46:42;106.05;;;45.22;;
47635;SDS011;33364;50.766;15.338;2022-12-20T12:49:16;129.52;;;56.78;;
47635;SDS011;33364;50.766;15.338;2022-12-20T12:52:03;70.68;;;32.28;;
47635;SDS011;33364;50.766;15.338;2022-12-20T12:54:36;72.88;;;31.35;;
47635;SDS011;33364;50.766;15.338;2022-12-20T12:57:16;75.47;;;33.20;;
47635;SDS011;33364;50.766;15.338;2022-12-20T12:59:44;73.50;;;32.08;;
47635;SDS011;33364;50.766;15.338;2022-12-20T13:15:02;121.07;;;46.22;;
47635;SDS011;33364;50.766;15.338;2022-12-20T13:19:54;83.78;;;36.35;;
47635;SDS011;33364;50.766;15.338;2022-12-20T13:22:20;78.63;;;33.63;;
47635;SDS011;33364;50.766;15.338;2022-12-20T13:24:50;69.47;;;29.80;;
47635;SDS011;33364;50.766;15.338;2022-12-20T13:27:31;73.78;;;35.38;;
47635;SDS011;33364;50.766;15.338;2022-12-20T13:30:14;69.03;;;29.63;;
47635;SDS011;33364;50.766;15.338;2022-12-20T13:40:48;76.53;;;30.52;;
47635;SDS011;33364;50.766;15.338;2022-12-20T13:46:05;73.35;;;29.95;;
47635;SDS011;33364;50.766;15.338;2022-12-20T13:51:28;132.10;;;51.22;;
47635;SDS011;33364;50.766;15.338;2022-12-20T13:59:17;115.93;;;51.08;;
47635;SDS011;33364;50.766;15.338;2022-12-20T14:01:52;79.53;;;32.45;;
47635;SDS011;33364;50.766;15.338;2022-12-20T14:04:21;86.80;;;38.50;;
47635;SDS011;33364;50.766;15.338;2022-12-20T14:06:57;73.10;;;30.08;;
47635;SDS011;33364;50.766;15.338;2022-12-20T14:09:30;71.38;;;31.55;;
47635;SDS011;33364;50.766;15.338;2022-12-20T14:12:05;70.45;;;33.40;;
47635;SDS011;33364;50.766;15.338;2022-12-20T14:14:37;119.18;;;48.55;;
47635;SDS011;33364;50.766;15.338;2022-12-20T14:19:45;117.00;;;49.20;;
47635;SDS011;33364;50.766;15.338;2022-12-20T14:22:11;119.80;;;53.97;;
47635;SDS011;33364;50.766;15.338;2022-12-20T14:24:38;88.93;;;39.97;;
47635;SDS011;33364;50.766;15.338;2022-12-20T14:27:08;82.05;;;37.33;;
47635;SDS011;33364;50.766;15.338;2022-12-20T14:29:37;87.22;;;36.88;;
47635;SDS011;33364;50.766;15.338;2022-12-20T14:32:04;75.47;;;31.35;;
47635;SDS011;33364;50.766;15.338;2022-12-20T14:34:31;69.05;;;30.30;;
47635;SDS011;33364;50.766;15.338;2022-12-20T14:42:34;93.68;;;34.22;;
47635;SDS011;33364;50.766;15.338;2022-12-20T14:45:23;86.32;;;35.55;;
47635;SDS011;33364;50.766;15.338;2022-12-20T14:47:53;77.53;;;32.03;;
47635;SDS011;33364;50.766;15.338;2022-12-20T14:50:29;60.15;;;27.77;;
47635;SDS011;33364;50.766;15.338;2022-12-20T14:53:02;68.63;;;30.45;;
47635;SDS011;33364;50.766;15.338;2022-12-20T14:55:38;77.47;;;33.70;;
47635;SDS011;33364;50.766;15.338;2022-12-20T15:03:28;113.53;;;49.92;;
47635;SDS011;33364;50.766;15.338;2022-12-20T15:08:25;87.82;;;38.25;;
47635;SDS011;33364;50.766;15.338;2022-12-20T15:10:59;88.93;;;43.42;;
47635;SDS011;33364;50.766;15.338;2022-12-20T15:13:26;139.85;;;56.63;;
47635;SDS011;33364;50.766;15.338;2022-12-20T15:15:56;91.88;;;37.92;;
47635;SDS011;33364;50.766;15.338;2022-12-20T15:18:23;81.40;;;31.85;;
47635;SDS011;33364;50.766;15.338;2022-12-20T15:20:59;85.55;;;40.05;;
47635;SDS011;33364;50.766;15.338;2022-12-20T15:23:29;95.78;;;40.88;;
47635;SDS011;33364;50.766;15.338;2022-12-20T15:25:55;86.63;;;36.28;;
47635;SDS011;33364;50.766;15.338;2022-12-20T15:28:22;84.20;;;37.17;;
47635;SDS011;33364;50.766;15.338;2022-12-20T15:30:50;96.28;;;42.42;;
47635;SDS011;33364;50.766;15.338;2022-12-20T15:33:25;147.68;;;74.85;;
47635;SDS011;33364;50.766;15.338;2022-12-20T15:35:53;78.50;;;34.22;;
47635;SDS011;33364;50.766;15.338;2022-12-20T15:38:21;119.70;;;43.50;;
47635;SDS011;33364;50.766;15.338;2022-12-20T15:40:49;125.53;;;42.72;;
47635;SDS011;33364;50.766;15.338;2022-12-20T15:43:18;113.25;;;40.97;;
47635;SDS011;33364;50.766;15.338;2022-12-20T15:45:47;87.13;;;36.22;;
47635;SDS011;33364;50.766;15.338;2022-12-20T15:48:16;81.88;;;35.42;;
47635;SDS011;33364;50.766;15.338;2022-12-20T15:50:47;91.07;;;39.83;;
47635;SDS011;33364;50.766;15.338;2022-12-20T15:53:27;70.80;;;29.95;;
47635;SDS011;33364;50.766;15.338;2022-12-20T15:55:56;68.28;;;27.90;;
47635;SDS011;33364;50.766;15.338;2022-12-20T15:58:23;67.65;;;26.10;;
47635;SDS011;33364;50.766;15.338;2022-12-20T16:00:49;72.60;;;32.85;;
47635;SDS011;33364;50.766;15.338;2022-12-20T16:03:19;59.60;;;27.10;;
47635;SDS011;33364;50.766;15.338;2022-12-20T16:05:48;66.63;;;30.80;;
47635;SDS011;33364;50.766;15.338;2022-12-20T16:08:18;77.70;;;36.97;;
47635;SDS011;33364;50.766;15.338;2022-12-20T16:10:44;71.07;;;28.98;;
47635;SDS011;33364;50.766;15.338;2022-12-20T16:13:15;74.43;;;34.88;;
47635;SDS011;33364;50.766;15.338;2022-12-20T16:15:44;117.93;;;43.17;;
47635;SDS011;33364;50.766;15.338;2022-12-20T16:18:10;386.15;;;97.75;;
47635;SDS011;33364;50.766;15.338;2022-12-20T16:20:36;251.70;;;69.95;;
47635;SDS011;33364;50.766;15.338;2022-12-20T16:23:03;161.50;;;50.30;;
47635;SDS011;33364;50.766;15.338;2022-12-20T16:25:33;159.38;;;50.20;;
47635;SDS011;33364;50.766;15.338;2022-12-20T16:28:01;166.10;;;53.25;;
47635;SDS011;33364;50.766;15.338;2022-12-20T16:30:27;166.38;;;49.58;;
47635;SDS011;33364;50.766;15.338;2022-12-20T16:32:53;101.00;;;36.08;;
47635;SDS011;33364;50.766;15.338;2022-12-20T16:35:23;86.25;;;31.27;;
47635;SDS011;33364;50.766;15.338;2022-12-20T16:37:57;71.82;;;29.40;;
47635;SDS011;33364;50.766;15.338;2022-12-20T16:40:24;91.47;;;34.53;;